Time;durP1;ratioP1;P1;durP2;ratioP2;P2;SDS_P1;SDS_P2;PMS_P1;PMS_P2;Temp;Humidity;BMP_temperature;BMP_pressure;BME280_temperature;BME280_humidity;BME280_pressure;Samples;Min_cycle;Max_cycle;Signal;HPM_P1;HPM_P2
2022/05/28 00:02:17;;;;;;;4.95;3.10;;;22.40;67.30;;;;;;4981743;28;20206;-76
2022/05/28 00:04:46;;;;;;;5.65;3.30;;;22.40;67.30;;;;;;4979750;28;20205;-75
2022/05/28 00:07:14;;;;;;;4.82;2.80;;;22.40;67.50;;;;;;4980179;28;20283;-76
2022/05/28 00:09:43;;;;;;;4.95;2.90;;;22.30;67.50;;;;;;4987185;28;20200;-77
2022/05/28 00:12:17;;;;;;;4.47;3.03;;;22.30;67.40;;;;;;4986540;28;20185;-77
2022/05/28 00:14:45;;;;;;;5.67;2.70;;;22.30;67.50;;;;;;4981414;28;20208;-77
2022/05/28 00:17:13;;;;;;;5.03;3.03;;;22.30;67.60;;;;;;4997121;28;20200;-76
2022/05/28 00:19:44;;;;;;;6.83;2.93;;;22.20;67.70;;;;;;4993157;28;20192;-76
2022/05/28 00:22:12;;;;;;;3.92;2.45;;;22.20;67.70;;;;;;4981167;28;20205;-76
2022/05/28 00:24:40;;;;;;;6.63;2.70;;;22.20;67.80;;;;;;4981817;28;20197;-76
2022/05/28 00:27:09;;;;;;;4.70;3.03;;;22.20;68.00;;;;;;4974380;28;20209;-76
2022/05/28 00:29:37;;;;;;;7.10;3.20;;;22.10;68.00;;;;;;4979292;28;20197;-76
2022/05/28 00:32:06;;;;;;;13.07;3.47;;;22.10;68.10;;;;;;4987171;28;20193;-76
2022/05/28 00:34:36;;;;;;;6.25;3.28;;;22.10;68.10;;;;;;4985202;28;20201;-76
2022/05/28 00:37:06;;;;;;;6.65;3.50;;;22.10;68.10;;;;;;4990430;28;20200;-76
2022/05/28 00:39:34;;;;;;;7.20;3.70;;;22.00;68.30;;;;;;4981611;28;20698;-77
2022/05/28 00:42:03;;;;;;;5.95;3.83;;;22.00;68.30;;;;;;4977669;28;20216;-76
2022/05/28 00:44:32;;;;;;;7.70;3.77;;;22.00;68.40;;;;;;4977939;28;20196;-76
2022/05/28 00:47:00;;;;;;;8.37;3.60;;;22.00;68.50;;;;;;4982809;28;20691;-76
2022/05/28 00:49:32;;;;;;;9.10;3.40;;;21.90;68.60;;;;;;4980638;28;20197;-76
2022/05/28 00:52:02;;;;;;;10.63;3.90;;;21.90;68.70;;;;;;4983192;28;20281;-76
2022/05/28 00:54:36;;;;;;;7.47;3.63;;;21.90;68.70;;;;;;4984384;28;20216;-76
2022/05/28 00:57:05;;;;;;;9.38;3.78;;;21.80;68.80;;;;;;4981578;28;20201;-76
2022/05/28 00:59:34;;;;;;;8.47;3.60;;;21.80;68.90;;;;;;4975304;28;20209;-76
2022/05/28 01:02:08;;;;;;;6.20;4.00;;;21.80;69.00;;;;;;4979677;28;20222;-75
2022/05/28 01:04:47;;;;;;;6.60;3.60;;;21.80;69.00;;;;;;4978673;28;20670;-76
2022/05/28 01:07:27;;;;;;;7.80;3.53;;;21.70;69.10;;;;;;4985119;28;20832;-76
2022/05/28 01:10:03;;;;;;;10.17;3.87;;;21.70;69.30;;;;;;4978967;28;20469;-76
2022/05/28 01:12:39;;;;;;;7.67;3.90;;;21.70;69.40;;;;;;4978309;28;20356;-76
2022/05/28 01:15:13;;;;;;;9.93;3.97;;;21.70;69.70;;;;;;4978797;28;20200;-76
2022/05/28 01:17:45;;;;;;;9.70;4.23;;;21.70;69.70;;;;;;4985191;28;20201;-76
2022/05/28 01:20:19;;;;;;;8.50;3.50;;;21.70;69.90;;;;;;4980383;28;21910;-77
2022/05/28 01:23:16;;;;;;;9.63;4.23;;;21.60;69.90;;;;;;4980468;28;20580;-77
2022/05/28 01:26:00;;;;;;;9.87;4.17;;;21.60;70.00;;;;;;4982827;28;20197;-77
2022/05/28 01:28:34;;;;;;;9.40;4.20;;;21.60;69.90;;;;;;4981655;28;20193;-76
2022/05/28 01:31:05;;;;;;;9.83;4.27;;;21.60;70.00;;;;;;4981735;28;20189;-76
2022/05/28 01:33:36;;;;;;;9.33;4.60;;;21.50;70.00;;;;;;4985156;28;20672;-76
2022/05/28 01:36:06;;;;;;;12.40;3.93;;;21.50;70.20;;;;;;4984550;28;20231;-76
2022/05/28 01:38:37;;;;;;;7.43;3.73;;;21.50;70.30;;;;;;4982519;28;20193;-76
2022/05/28 01:41:07;;;;;;;7.80;4.33;;;21.40;70.20;;;;;;4980479;28;20572;-77
2022/05/28 01:43:40;;;;;;;9.57;4.70;;;21.40;70.30;;;;;;4980773;28;20209;-77
2022/05/28 01:48:40;;;;;;;11.40;4.67;;;21.40;70.40;;;;;;4982150;28;20224;-76
2022/05/28 01:51:12;;;;;;;10.70;4.73;;;21.40;70.50;;;;;;4983926;28;20220;-76
2022/05/28 01:56:27;;;;;;;9.53;4.60;;;21.30;71.00;;;;;;4982098;28;20207;-76
2022/05/28 01:58:57;;;;;;;11.43;4.50;;;21.30;70.80;;;;;;4982679;28;20208;-77
2022/05/28 02:01:26;;;;;;;10.33;4.00;;;21.30;71.00;;;;;;4979872;28;20193;-77
2022/05/28 02:03:58;;;;;;;8.23;4.87;;;21.20;71.00;;;;;;4978683;28;20228;-77
2022/05/28 02:06:27;;;;;;;10.83;4.43;;;21.20;71.10;;;;;;4982764;28;20713;-75
2022/05/28 02:08:56;;;;;;;8.18;4.50;;;21.20;72.10;;;;;;4982167;28;20449;-76
2022/05/28 02:11:26;;;;;;;7.03;4.43;;;21.20;71.40;;;;;;4979769;28;20200;-76
2022/05/28 02:14:10;;;;;;;13.90;4.80;;;21.20;71.50;;;;;;4979627;28;20197;-75
2022/05/28 02:16:50;;;;;;;14.00;5.20;;;21.20;71.60;;;;;;4980311;28;20200;-76
2022/05/28 02:19:26;;;;;;;9.30;5.27;;;21.20;71.60;;;;;;4985314;28;20197;-77
2022/05/28 02:22:02;;;;;;;13.40;4.83;;;21.10;71.60;;;;;;4981428;28;20192;-76
2022/05/28 02:24:35;;;;;;;15.03;6.13;;;21.10;71.60;;;;;;4981014;28;20208;-76
2022/05/28 02:27:17;;;;;;;10.03;5.20;;;21.10;71.90;;;;;;4982014;28;20200;-77
2022/05/28 02:29:47;;;;;;;11.77;5.60;;;21.10;71.90;;;;;;4980096;28;20201;-76
2022/05/28 02:32:18;;;;;;;13.60;5.20;;;21.10;72.20;;;;;;4979895;28;20197;-76
2022/05/28 02:34:47;;;;;;;9.60;5.03;;;21.10;72.30;;;;;;4976457;28;20205;-77
2022/05/28 02:37:17;;;;;;;13.13;4.63;;;21.00;72.20;;;;;;4976721;28;20228;-76
2022/05/28 02:39:45;;;;;;;8.03;4.77;;;21.00;72.30;;;;;;4981867;28;20213;-76
2022/05/28 02:42:14;;;;;;;8.13;4.50;;;21.00;72.30;;;;;;4978741;28;20198;-77
2022/05/28 02:44:43;;;;;;;13.53;5.50;;;21.00;72.30;;;;;;4979126;28;20220;-76
2022/05/28 02:47:13;;;;;;;18.63;5.53;;;21.00;72.50;;;;;;4984001;28;20229;-77
2022/05/28 02:49:41;;;;;;;14.70;6.17;;;21.00;72.50;;;;;;4980916;28;20205;-77
2022/05/28 02:52:10;;;;;;;19.07;6.80;;;21.00;72.50;;;;;;4983374;28;20427;-76
2022/05/28 02:54:39;;;;;;;13.17;5.27;;;21.00;72.50;;;;;;4986919;28;20197;-76
2022/05/28 02:57:07;;;;;;;10.43;4.70;;;21.00;72.60;;;;;;4983812;28;20304;-77
2022/05/28 02:59:35;;;;;;;13.73;5.03;;;21.10;72.60;;;;;;4980204;28;20576;-76
2022/05/28 03:02:04;;;;;;;12.07;4.13;;;21.00;72.60;;;;;;4980601;28;20212;-76
2022/05/28 03:04:34;;;;;;;7.50;4.13;;;21.00;72.60;;;;;;4981117;28;20219;-77
2022/05/28 03:07:03;;;;;;;8.73;4.70;;;21.00;72.70;;;;;;4982610;28;20203;-77
2022/05/28 03:09:31;;;;;;;6.27;4.07;;;21.00;72.70;;;;;;4983319;28;20211;-77
2022/05/28 03:11:59;;;;;;;7.47;3.50;;;21.10;72.90;;;;;;4981843;28;20216;-77
2022/05/28 03:14:28;;;;;;;8.20;3.83;;;21.10;72.80;;;;;;4980336;28;20238;-76
2022/05/28 03:16:58;;;;;;;8.80;4.33;;;21.10;72.80;;;;;;4982113;28;20198;-76
2022/05/28 03:19:26;;;;;;;8.10;4.40;;;21.20;72.80;;;;;;4979697;28;20197;-76
2022/05/28 03:21:56;;;;;;;11.67;4.80;;;21.20;72.70;;;;;;4983155;28;20201;-77
2022/05/28 03:24:25;;;;;;;7.23;4.00;;;21.20;72.70;;;;;;4982616;28;20223;-77
2022/05/28 03:26:57;;;;;;;10.10;4.50;;;21.20;72.50;;;;;;4984339;28;20205;-76
2022/05/28 03:29:25;;;;;;;9.27;4.40;;;21.30;72.50;;;;;;4984425;28;20280;-76
2022/05/28 03:31:53;;;;;;;10.27;4.53;;;21.30;72.90;;;;;;4986492;28;20197;-77
2022/05/28 03:34:22;;;;;;;9.40;4.33;;;21.30;73.10;;;;;;4976959;28;20205;-77
2022/05/28 03:36:50;;;;;;;6.57;4.50;;;21.40;72.50;;;;;;4989163;28;20197;-76
2022/05/28 03:39:20;;;;;;;13.20;4.50;;;21.40;72.40;;;;;;4987525;28;20192;-76
2022/05/28 03:41:48;;;;;;;8.37;4.40;;;21.40;72.50;;;;;;4986955;28;20239;-76
2022/05/28 03:44:16;;;;;;;11.13;4.83;;;21.40;72.50;;;;;;4980074;28;20217;-76
2022/05/28 03:46:45;;;;;;;7.00;4.40;;;21.40;72.60;;;;;;4988071;28;20911;-77
2022/05/28 03:49:24;;;;;;;11.30;4.80;;;21.40;72.60;;;;;;4983012;28;20189;-77
2022/05/28 03:51:52;;;;;;;9.60;3.97;;;21.40;72.60;;;;;;4980988;28;20189;-77
2022/05/28 03:54:22;;;;;;;9.53;4.43;;;21.40;72.50;;;;;;4981638;28;20193;-76
2022/05/28 03:56:56;;;;;;;11.53;4.77;;;21.50;72.70;;;;;;4985823;28;20212;-77
2022/05/28 03:59:24;;;;;;;6.97;4.00;;;21.50;72.70;;;;;;4985908;28;20185;-76
2022/05/28 04:01:53;;;;;;;7.03;4.00;;;21.50;72.60;;;;;;4983453;28;20208;-77
2022/05/28 04:04:22;;;;;;;8.87;4.67;;;21.50;72.60;;;;;;4985994;28;20888;-76
2022/05/28 04:06:51;;;;;;;12.60;4.50;;;21.50;72.60;;;;;;4984817;28;20197;-77
2022/05/28 04:09:21;;;;;;;9.60;3.87;;;21.60;72.70;;;;;;4984092;28;20197;-77
2022/05/28 04:11:49;;;;;;;7.33;4.00;;;21.60;72.70;;;;;;4992747;28;20204;-78
2022/05/28 04:14:18;;;;;;;8.00;3.83;;;21.60;72.70;;;;;;4977884;28;20201;-76
2022/05/28 04:16:46;;;;;;;7.35;3.58;;;21.70;72.60;;;;;;4985007;28;20201;-77
2022/05/28 04:19:15;;;;;;;5.63;3.43;;;21.60;72.40;;;;;;4984131;28;20672;-77
2022/05/28 04:21:43;;;;;;;6.53;3.15;;;21.70;72.40;;;;;;4984465;28;20197;-76
2022/05/28 04:24:11;;;;;;;7.40;3.83;;;21.70;72.30;;;;;;4984931;28;20505;-76
2022/05/28 04:26:41;;;;;;;9.93;3.57;;;21.70;72.20;;;;;;4983401;28;20205;-76
2022/05/28 04:29:10;;;;;;;5.65;3.42;;;21.70;72.20;;;;;;4978041;28;20209;-76
2022/05/28 04:31:38;;;;;;;8.45;3.85;;;21.80;72.20;;;;;;4984329;28;20833;-75
2022/05/28 04:34:06;;;;;;;10.27;3.78;;;21.80;72.20;;;;;;4983938;28;20228;-76
2022/05/28 04:36:35;;;;;;;7.00;3.20;;;21.80;72.20;;;;;;4982899;28;20193;-77
2022/05/28 04:39:04;;;;;;;13.63;3.42;;;21.90;72.20;;;;;;4984441;28;20193;-78
2022/05/28 04:41:32;;;;;;;5.53;3.58;;;21.90;72.10;;;;;;4983033;28;20208;-77
2022/05/28 04:44:02;;;;;;;9.93;3.45;;;22.00;72.20;;;;;;4982046;28;20216;-76
2022/05/28 04:46:30;;;;;;;6.90;3.65;;;22.00;72.20;;;;;;4986061;28;20209;-77
2022/05/28 04:48:59;;;;;;;7.45;4.00;;;22.10;72.10;;;;;;4985805;28;20213;-76
2022/05/28 04:51:27;;;;;;;8.38;3.70;;;22.10;72.00;;;;;;4986217;28;20737;-76
2022/05/28 04:53:55;;;;;;;6.30;3.88;;;22.10;72.10;;;;;;4982343;28;20231;-77
2022/05/28 04:56:24;;;;;;;8.75;4.00;;;22.20;72.10;;;;;;4984861;28;20208;-76
2022/05/28 04:58:52;;;;;;;8.55;3.88;;;22.20;71.90;;;;;;4984627;28;20204;-76
2022/05/28 05:01:24;;;;;;;9.68;4.57;;;22.30;72.10;;;;;;4985735;28;20204;-76
2022/05/28 05:03:52;;;;;;;10.68;3.88;;;22.30;72.00;;;;;;4983403;28;20193;-76
2022/05/28 05:06:21;;;;;;;8.65;4.72;;;22.30;71.90;;;;;;4984927;28;20197;-76
2022/05/28 05:08:50;;;;;;;11.50;4.22;;;22.40;72.00;;;;;;4985430;28;20284;-77
2022/05/28 05:11:18;;;;;;;8.48;4.00;;;22.40;71.90;;;;;;4985893;28;20197;-77
2022/05/28 05:13:46;;;;;;;7.15;3.92;;;22.50;71.90;;;;;;4983919;28;20205;-78
2022/05/28 05:16:18;;;;;;;9.65;4.28;;;22.60;71.90;;;;;;4977469;28;20214;-76
2022/05/28 05:18:49;;;;;;;9.68;4.40;;;22.60;72.00;;;;;;4985836;28;20244;-77
2022/05/28 05:21:17;;;;;;;8.65;4.32;;;22.70;72.00;;;;;;4979503;28;20197;-78
2022/05/28 05:23:46;;;;;;;12.35;4.45;;;22.70;72.00;;;;;;4981693;28;20201;-76
2022/05/28 05:26:16;;;;;;;11.55;4.30;;;22.70;72.10;;;;;;4981594;28;20245;-77
2022/05/28 05:28:46;;;;;;;7.22;3.97;;;22.80;72.00;;;;;;4980576;28;20232;-77
2022/05/28 05:31:14;;;;;;;6.85;3.88;;;22.90;72.00;;;;;;4979825;28;20193;-76
2022/05/28 05:33:42;;;;;;;6.40;3.88;;;22.90;72.10;;;;;;4980267;28;20655;-78
2022/05/28 05:36:13;;;;;;;7.93;4.22;;;23.00;72.00;;;;;;4984388;28;20208;-76
2022/05/28 05:38:42;;;;;;;12.77;4.15;;;23.00;72.00;;;;;;4988654;28;20201;-76
2022/05/28 05:41:10;;;;;;;8.05;4.20;;;23.20;72.20;;;;;;4988126;28;20201;-76
2022/05/28 05:43:39;;;;;;;8.20;4.25;;;23.20;72.10;;;;;;4985128;28;20208;-76
2022/05/28 05:46:08;;;;;;;9.38;4.57;;;23.30;72.00;;;;;;4985083;28;20223;-76
2022/05/28 05:48:37;;;;;;;9.07;3.58;;;23.40;71.90;;;;;;4976824;28;20256;-77
2022/05/28 05:51:07;;;;;;;9.20;3.67;;;23.50;71.80;;;;;;4986050;28;20579;-75
2022/05/28 05:53:37;;;;;;;14.95;3.45;;;23.50;71.50;;;;;;4986058;28;20197;-76
2022/05/28 05:56:06;;;;;;;9.85;3.22;;;23.60;71.30;;;;;;4983993;28;20203;-76
2022/05/28 05:58:35;;;;;;;9.13;3.45;;;23.60;70.90;;;;;;4985314;28;20581;-77
2022/05/28 06:01:04;;;;;;;5.43;3.28;;;23.70;70.70;;;;;;4985026;28;20197;-77
2022/05/28 06:03:33;;;;;;;10.02;3.40;;;23.80;70.50;;;;;;4986805;28;20295;-77
2022/05/28 06:06:04;;;;;;;9.48;3.33;;;23.90;70.40;;;;;;4983819;28;20221;-76
2022/05/28 06:08:33;;;;;;;8.77;3.53;;;24.10;70.20;;;;;;4982125;28;20201;-78
2022/05/28 06:11:03;;;;;;;13.48;3.85;;;24.20;70.00;;;;;;4981816;28;20193;-78
2022/05/28 06:13:31;;;;;;;9.68;3.67;;;24.30;70.00;;;;;;4980320;28;20197;-76
2022/05/28 06:16:00;;;;;;;9.80;3.30;;;24.30;69.20;;;;;;4979479;28;20205;-76
2022/05/28 06:18:28;;;;;;;8.80;3.92;;;24.40;69.10;;;;;;4980652;28;20209;-76
2022/05/28 06:20:57;;;;;;;13.93;4.75;;;24.50;69.00;;;;;;4975720;28;20678;-77
2022/05/28 06:23:25;;;;;;;10.13;3.85;;;24.60;68.90;;;;;;4979897;28;20200;-77
2022/05/28 06:26:06;;;;;;;7.28;3.72;;;24.80;68.90;;;;;;4983507;28;20225;-77
2022/05/28 06:28:35;;;;;;;9.63;3.13;;;24.80;67.60;;;;;;4981438;28;20714;-76
2022/05/28 06:31:05;;;;;;;10.50;3.33;;;24.90;67.60;;;;;;4982367;28;20915;-76
2022/05/28 06:33:34;;;;;;;7.20;3.42;;;24.90;67.20;;;;;;4983915;28;20212;-77
2022/05/28 06:36:05;;;;;;;6.22;3.28;;;25.00;67.00;;;;;;4982960;28;20193;-76
2022/05/28 06:38:34;;;;;;;10.85;3.50;;;25.00;67.10;;;;;;4983451;28;20568;-78
2022/05/28 06:41:03;;;;;;;10.63;3.13;;;25.00;65.70;;;;;;4981857;28;20644;-77
2022/05/28 06:43:34;;;;;;;9.15;2.67;;;25.10;65.70;;;;;;4984756;28;20201;-77
2022/05/28 06:46:03;;;;;;;6.85;2.70;;;25.10;65.50;;;;;;4981674;28;20217;-76
2022/05/28 06:48:32;;;;;;;6.45;2.90;;;25.20;65.50;;;;;;4987174;28;20271;-77
2022/05/28 06:51:03;;;;;;;5.82;2.67;;;25.20;65.10;;;;;;4982980;28;20219;-77
2022/05/28 06:53:34;;;;;;;13.20;2.70;;;25.20;65.20;;;;;;4975943;28;20203;-77
2022/05/28 06:56:02;;;;;;;6.80;2.80;;;25.30;65.50;;;;;;4978327;28;20193;-78
2022/05/28 06:58:31;;;;;;;6.72;2.42;;;25.30;65.70;;;;;;4981774;28;20205;-78
2022/05/28 07:01:01;;;;;;;9.55;2.92;;;25.40;65.80;;;;;;4975374;28;20576;-77
2022/05/28 07:03:31;;;;;;;8.07;2.67;;;25.40;65.80;;;;;;4980212;28;20189;-77
2022/05/28 07:06:00;;;;;;;7.13;3.20;;;25.40;65.50;;;;;;4984751;28;20228;-77
2022/05/28 07:08:35;;;;;;;4.78;2.22;;;25.40;64.90;;;;;;4983048;28;20687;-78
2022/05/28 07:11:07;;;;;;;6.00;2.53;;;25.40;64.50;;;;;;4981978;28;20429;-78
2022/05/28 07:13:37;;;;;;;7.65;2.50;;;25.40;64.00;;;;;;4986946;28;20204;-78
2022/05/28 07:16:08;;;;;;;6.50;2.40;;;25.40;64.00;;;;;;4997846;28;20674;-77
2022/05/28 07:18:37;;;;;;;4.28;2.40;;;25.40;64.10;;;;;;4985584;28;20702;-77
2022/05/28 07:21:06;;;;;;;6.75;2.40;;;25.40;64.20;;;;;;4992599;28;20237;-77
2022/05/28 07:23:35;;;;;;;6.78;2.92;;;25.50;65.00;;;;;;4997390;28;20205;-77
2022/05/28 07:26:07;;;;;;;10.52;2.75;;;25.50;63.50;;;;;;4984890;28;20217;-77
2022/05/28 07:28:37;;;;;;;9.50;2.30;;;25.50;62.60;;;;;;4993222;28;20207;-77
2022/05/28 07:31:09;;;;;;;5.60;2.75;;;25.50;62.60;;;;;;4990441;28;20198;-77
2022/05/28 07:33:40;;;;;;;7.30;2.40;;;25.60;63.20;;;;;;4989968;28;20205;-77
2022/05/28 07:36:11;;;;;;;9.10;2.92;;;25.60;63.50;;;;;;4992871;28;20193;-76
2022/05/28 07:38:41;;;;;;;6.63;2.58;;;25.60;63.80;;;;;;4990892;28;20879;-75
2022/05/28 07:41:12;;;;;;;4.63;2.17;;;25.60;64.00;;;;;;4985825;28;20284;-77
2022/05/28 07:43:42;;;;;;;15.25;2.90;;;25.60;63.50;;;;;;4994331;28;20791;-77
2022/05/28 07:46:16;;;;;;;6.78;2.40;;;25.60;63.20;;;;;;4995446;28;20253;-75
2022/05/28 07:48:46;;;;;;;4.35;2.50;;;25.70;63.20;;;;;;4988218;28;20193;-77
2022/05/28 07:51:14;;;;;;;53.28;5.50;;;25.80;63.30;;;;;;4988352;28;20209;-77
2022/05/28 07:53:44;;;;;;;6.55;2.47;;;25.80;63.10;;;;;;4987829;28;20557;-76
2022/05/28 07:56:12;;;;;;;5.15;2.45;;;25.90;63.10;;;;;;4985584;28;20197;-77
2022/05/28 07:58:42;;;;;;;9.00;2.72;;;25.90;63.10;;;;;;4984873;28;20203;-78
2022/05/28 08:01:20;;;;;;;7.13;2.50;;;25.90;63.00;;;;;;4989130;28;20205;-77
2022/05/28 08:03:49;;;;;;;6.22;2.38;;;26.00;63.10;;;;;;4982965;28;20247;-77
2022/05/28 08:06:18;;;;;;;7.70;2.88;;;26.00;63.00;;;;;;4979066;28;20224;-77
2022/05/28 08:08:48;;;;;;;8.77;2.40;;;26.10;62.90;;;;;;4985309;28;20208;-77
2022/05/28 08:11:16;;;;;;;7.32;2.53;;;26.20;62.90;;;;;;4985169;28;20204;-78
2022/05/28 08:13:44;;;;;;;6.70;2.60;;;26.30;63.00;;;;;;4982601;28;20204;-77
2022/05/28 08:16:13;;;;;;;5.65;1.98;;;26.40;63.10;;;;;;4985259;28;20192;-80
2022/05/28 08:18:43;;;;;;;156.95;25.70;;;26.50;62.80;;;;;;4985809;28;20879;-78
2022/05/28 08:23:58;;;;;;;9.10;2.22;;;26.70;60.90;;;;;;4977773;28;20292;-78
2022/05/28 08:26:27;;;;;;;5.68;2.40;;;26.80;60.60;;;;;;4983294;28;20690;-78
2022/05/28 08:28:56;;;;;;;4.47;2.17;;;26.80;60.50;;;;;;4985274;28;20690;-79
2022/05/28 08:31:25;;;;;;;7.15;2.42;;;26.80;60.50;;;;;;4986143;28;20209;-77
2022/05/28 08:33:56;;;;;;;4.30;1.75;;;26.90;60.10;;;;;;4982806;28;20292;-79
2022/05/28 08:36:25;;;;;;;8.98;2.10;;;27.10;60.00;;;;;;4983378;28;20185;-80
2022/05/28 08:38:54;;;;;;;3.10;1.88;;;27.10;60.20;;;;;;4982509;28;20197;-79
2022/05/28 08:41:25;;;;;;;6.15;2.42;;;27.20;60.00;;;;;;4984392;28;20224;-79
2022/05/28 08:44:01;;;;;;;4.20;1.88;;;27.30;58.90;;;;;;4979178;28;20936;-79
2022/05/28 08:46:34;;;;;;;4.88;2.00;;;27.40;59.30;;;;;;4987280;28;20569;-81
2022/05/28 08:49:07;;;;;;;4.93;2.20;;;27.40;59.20;;;;;;4986820;28;20189;-81
2022/05/28 08:51:41;;;;;;;4.47;1.80;;;27.50;58.70;;;;;;4988840;28;20197;-79
2022/05/28 08:54:14;;;;;;;7.20;2.38;;;27.50;58.60;;;;;;4986641;28;20204;-79
2022/05/28 08:56:44;;;;;;;4.85;1.95;;;27.60;58.70;;;;;;4976323;28;26065;-80
2022/05/28 08:59:19;;;;;;;4.07;1.85;;;27.60;58.90;;;;;;4974303;28;20667;-79
2022/05/28 09:01:55;;;;;;;3.63;1.67;;;27.70;59.00;;;;;;4980671;28;20248;-79
2022/05/28 09:04:29;;;;;;;7.30;2.90;;;27.80;58.70;;;;;;4992176;28;20207;-80
2022/05/28 09:07:01;;;;;;;2.95;1.83;;;27.80;58.60;;;;;;4991803;28;20208;-79
2022/05/28 09:09:39;;;;;;;6.20;1.85;;;27.90;58.60;;;;;;4977545;28;20201;-78
2022/05/28 09:12:11;;;;;;;6.60;2.10;;;27.90;58.40;;;;;;4989451;28;20198;-79
2022/05/28 09:14:40;;;;;;;6.57;2.05;;;27.90;58.70;;;;;;4990403;28;20698;-78
2022/05/28 09:17:24;;;;;;;7.45;2.25;;;27.90;59.20;;;;;;4976262;28;21715;-80
2022/05/28 09:19:57;;;;;;;7.93;2.40;;;28.00;59.20;;;;;;4984209;28;20228;-81
2022/05/28 09:22:26;;;;;;;3.75;2.05;;;28.00;59.30;;;;;;4986533;28;20212;-79
2022/05/28 09:24:54;;;;;;;5.00;2.20;;;28.10;59.30;;;;;;4989971;28;20425;-80
2022/05/28 09:27:32;;;;;;;5.90;1.85;;;28.20;59.30;;;;;;4991119;28;20263;-80
2022/05/28 09:30:16;;;;;;;8.82;2.25;;;28.30;58.60;;;;;;4990883;28;20229;-82
2022/05/28 09:33:05;;;;;;;4.80;2.28;;;28.40;58.60;;;;;;4988655;28;20193;-77
2022/05/28 09:35:48;;;;;;;6.47;1.50;;;28.40;58.30;;;;;;4981095;28;20189;-78
2022/05/28 09:38:24;;;;;;;4.38;2.08;;;28.40;57.80;;;;;;4982128;28;20212;-78
2022/05/28 09:40:53;;;;;;;3.00;1.48;;;28.30;57.40;;;;;;4979430;28;20196;-81
2022/05/28 09:43:48;;;;;;;4.78;1.95;;;28.40;57.60;;;;;;4990521;28;20652;-79
2022/05/28 09:46:22;;;;;;;3.80;2.10;;;28.40;57.10;;;;;;4990434;28;20667;-78
2022/05/28 09:48:59;;;;;;;7.35;2.03;;;28.40;57.30;;;;;;4999352;28;20290;-79
2022/05/28 09:51:31;;;;;;;5.10;1.80;;;28.50;57.40;;;;;;4978121;28;20205;-79
2022/05/28 09:54:21;;;;;;;4.03;1.88;;;28.60;57.40;;;;;;4985655;28;20193;-77
2022/05/28 09:56:55;;;;;;;3.92;1.80;;;28.60;57.30;;;;;;4984230;28;20188;-80
2022/05/28 09:59:34;;;;;;;3.83;1.77;;;28.60;57.30;;;;;;4982579;28;20203;-77
2022/05/28 10:02:09;;;;;;;7.10;2.08;;;28.70;57.40;;;;;;4981602;28;20201;-79
2022/05/28 10:04:49;;;;;;;3.38;1.80;;;28.70;57.30;;;;;;4987138;28;20201;-79
2022/05/28 10:07:34;;;;;;;4.90;2.00;;;28.80;57.10;;;;;;4994979;28;20559;-79
2022/05/28 10:10:13;;;;;;;4.25;2.10;;;28.80;57.10;;;;;;4989386;28;20201;-78
2022/05/28 10:12:42;;;;;;;5.53;2.03;;;28.80;57.40;;;;;;4991013;28;20207;-79
2022/05/28 10:15:12;;;;;;;5.63;1.90;;;28.80;57.70;;;;;;4989013;28;20795;-77
2022/05/28 10:17:44;;;;;;;4.03;1.75;;;29.00;58.00;;;;;;4974196;28;20190;-80
2022/05/28 10:20:18;;;;;;;5.38;2.42;;;29.10;57.90;;;;;;4979768;28;20196;-77
2022/05/28 10:22:50;;;;;;;7.55;1.80;;;29.10;57.40;;;;;;4978600;28;20197;-79
2022/05/28 10:25:31;;;;;;;6.40;1.40;;;29.10;56.30;;;;;;4980358;28;20220;-78
2022/05/28 10:27:59;;;;;;;3.60;1.92;;;29.10;56.20;;;;;;4971236;28;20212;-77
2022/05/28 10:30:34;;;;;;;2.30;1.48;;;29.20;55.90;;;;;;4977996;28;20208;-77
2022/05/28 10:33:05;;;;;;;6.40;2.45;;;29.20;55.50;;;;;;4993557;28;20548;-78
2022/05/28 10:35:33;;;;;;;3.58;1.67;;;29.20;55.60;;;;;;4983375;28;20200;-77
2022/05/28 10:38:14;;;;;;;7.45;2.17;;;29.20;54.80;;;;;;4981627;28;20205;-78
2022/05/28 10:40:49;;;;;;;5.20;1.70;;;29.30;55.30;;;;;;4982021;28;20204;-77
2022/05/28 10:43:28;;;;;;;11.68;1.90;;;29.30;55.10;;;;;;4985961;28;20197;-77
2022/05/28 10:46:21;;;;;;;6.55;2.08;;;29.40;54.40;;;;;;4982831;28;20201;-78
2022/05/28 10:49:18;;;;;;;5.88;1.40;;;29.40;53.70;;;;;;4981352;28;20240;-79
2022/05/28 10:51:58;;;;;;;3.05;1.40;;;29.50;53.60;;;;;;4981277;28;20197;-77
2022/05/28 10:54:46;;;;;;;2.50;1.20;;;29.40;52.70;;;;;;4988541;28;20204;-76
2022/05/28 10:57:32;;;;;;;2.03;1.10;;;29.50;52.10;;;;;;4982383;28;20193;-76
2022/05/28 11:00:07;;;;;;;2.60;1.75;;;29.50;52.10;;;;;;4977322;28;20605;-75
2022/05/28 11:02:52;;;;;;;7.90;1.52;;;29.60;52.20;;;;;;4978520;28;20192;-77
2022/05/28 11:05:38;;;;;;;2.95;1.15;;;29.70;51.90;;;;;;4978830;28;20533;-76
2022/05/28 11:08:13;;;;;;;3.25;1.10;;;29.80;52.20;;;;;;4983681;28;20205;-77
2022/05/28 11:11:08;;;;;;;4.32;1.58;;;30.00;52.20;;;;;;4983724;28;20208;-77
2022/05/28 11:13:55;;;;;;;4.25;1.10;;;30.10;51.90;;;;;;4984734;28;20200;-77
2022/05/28 11:16:51;;;;;;;3.20;1.25;;;30.20;51.40;;;;;;4982574;28;20208;-77
2022/05/28 11:19:36;;;;;;;2.33;1.00;;;30.30;51.20;;;;;;4982620;28;20232;-78
2022/05/28 11:22:29;;;;;;;4.55;1.13;;;30.30;50.50;;;;;;4985092;28;20648;-78
2022/05/28 11:25:05;;;;;;;6.25;1.23;;;30.30;50.10;;;;;;4977541;28;20211;-78
2022/05/28 11:27:53;;;;;;;1.70;1.05;;;30.50;50.60;;;;;;4982185;28;20206;-77
2022/05/28 11:30:27;;;;;;;3.63;1.17;;;30.50;50.50;;;;;;4980091;28;20201;-78
2022/05/28 11:33:01;;;;;;;2.83;1.48;;;30.50;51.20;;;;;;4981086;28;20247;-77
2022/05/28 11:35:39;;;;;;;3.70;1.42;;;30.50;51.30;;;;;;4989141;28;20211;-77
2022/05/28 11:38:16;;;;;;;4.57;1.73;;;30.50;51.30;;;;;;4990243;28;20201;-77
2022/05/28 11:40:54;;;;;;;2.15;1.48;;;30.40;51.20;;;;;;4973186;28;20300;-76
2022/05/28 11:43:29;;;;;;;2.80;1.40;;;30.30;51.10;;;;;;4995089;28;20200;-77
2022/05/28 11:46:05;;;;;;;2.38;1.25;;;30.20;51.20;;;;;;4979375;28;20711;-76
2022/05/28 11:51:37;;;;;;;3.85;1.45;;;30.00;51.50;;;;;;4990424;28;20201;-77
2022/05/28 11:54:10;;;;;;;3.40;1.33;;;29.90;51.30;;;;;;4989188;28;20229;-77
2022/05/28 11:56:38;;;;;;;2.30;1.35;;;29.90;51.50;;;;;;4992416;28;20184;-79
2022/05/28 11:59:12;;;;;;;4.20;1.67;;;29.90;51.40;;;;;;4982920;28;20205;-77
2022/05/28 12:01:51;;;;;;;3.88;1.90;;;30.10;51.80;;;;;;4980643;28;20204;-77
2022/05/28 12:04:20;;;;;;;5.15;1.73;;;30.20;51.60;;;;;;4986338;28;20192;-77
2022/05/28 12:07:02;;;;;;;2.70;1.40;;;30.30;52.00;;;;;;4983215;28;20203;-76
2022/05/28 12:09:33;;;;;;;2.78;1.40;;;30.40;52.10;;;;;;4986714;28;20201;-77
2022/05/28 12:12:13;;;;;;;5.75;1.77;;;30.50;52.10;;;;;;4983676;28;20216;-76
2022/05/28 12:14:47;;;;;;;6.88;1.77;;;30.60;51.90;;;;;;4985707;28;20248;-76
2022/05/28 12:17:28;;;;;;;2.47;1.38;;;30.70;51.80;;;;;;4985227;28;20204;-76
2022/05/28 12:20:00;;;;;;;2.88;1.17;;;30.80;51.70;;;;;;4986077;28;20554;-76
2022/05/28 12:22:32;;;;;;;5.72;1.40;;;30.80;51.70;;;;;;4981531;28;20281;-76
2022/05/28 12:25:31;;;;;;;3.58;1.40;;;30.80;51.50;;;;;;4985412;28;20197;-76
2022/05/28 12:28:11;;;;;;;2.28;1.30;;;30.90;51.30;;;;;;4982838;28;20549;-77
2022/05/28 12:30:51;;;;;;;4.30;1.67;;;30.80;51.10;;;;;;4984841;28;20208;-77
2022/05/28 12:33:27;;;;;;;4.65;1.33;;;30.90;50.90;;;;;;4985097;28;20200;-77
2022/05/28 12:36:20;;;;;;;7.07;2.22;;;30.90;51.30;;;;;;4982067;28;20189;-77
2022/05/28 12:38:55;;;;;;;4.15;2.08;;;30.90;51.10;;;;;;4983488;28;20202;-78
2022/05/28 12:41:27;;;;;;;3.75;2.00;;;30.80;50.00;;;;;;4985049;28;20201;-76
2022/05/28 12:44:16;;;;;;;5.53;1.75;;;30.90;49.90;;;;;;4986913;28;20209;-76
2022/05/28 12:46:50;;;;;;;4.15;1.48;;;31.00;50.10;;;;;;4986612;28;20721;-75
2022/05/28 12:49:28;;;;;;;4.40;1.60;;;31.00;50.20;;;;;;4989701;28;20717;-77
2022/05/28 12:52:21;;;;;;;2.15;1.40;;;31.00;49.70;;;;;;4985610;28;20201;-76
2022/05/28 12:55:06;;;;;;;5.07;1.67;;;30.90;49.70;;;;;;4984495;28;20901;-77
2022/05/28 12:57:36;;;;;;;1.92;1.23;;;30.80;49.70;;;;;;4984562;28;20201;-77
2022/05/28 13:00:12;;;;;;;3.05;1.67;;;30.90;49.70;;;;;;4985930;28;20197;-76
2022/05/28 13:02:43;;;;;;;3.80;1.35;;;30.80;49.80;;;;;;4980825;28;20781;-76
2022/05/28 13:05:15;;;;;;;5.88;1.58;;;30.80;49.80;;;;;;4985957;28;20221;-78
2022/05/28 13:07:46;;;;;;;3.28;1.73;;;30.70;49.30;;;;;;4988191;28;20212;-76
2022/05/28 13:10:17;;;;;;;4.10;1.52;;;30.70;49.20;;;;;;4989375;28;20212;-78
2022/05/28 13:12:52;;;;;;;3.92;1.58;;;30.90;49.40;;;;;;4984098;28;20209;-78
2022/05/28 13:15:57;;;;;;;6.13;1.83;;;31.00;49.40;;;;;;4984725;28;20189;-78
2022/05/28 13:19:06;;;;;;;3.75;1.40;;;31.20;49.60;;;;;;4985634;28;20193;-78
2022/05/28 13:22:03;;;;;;;2.15;1.20;;;31.40;48.30;;;;;;4981675;28;20780;-78
2022/05/28 13:24:53;;;;;;;2.20;1.15;;;31.70;48.20;;;;;;4982896;28;20208;-80
2022/05/28 13:27:44;;;;;;;4.05;1.30;;;32.00;47.80;;;;;;4986707;28;20197;-75